Terminal Aerodrome Forecast
Issued by NWS

Home | Current Version | Previous Version | Text Only | Print | Product List | Glossary On
Versions: 1 2 3 4 5 6 7 8 9 10 11 12 13 14 15 16
000
FTUS45 KFGZ 221140
TAFPRC
TAF
KPRC 221140Z 2212/2312 VRB05KT P6SM SCT080 BKN100
     FM221800 33008KT P6SM SCT050 BKN070
      TEMPO 2220/2224 VRB10G20KT 4SM TSRA BKN050CB
     FM230100 VRB05KT P6SM SCT090 BKN120=

USA.gov is the U.S. government's official web portal to all federal, state and local government web resources and services.